createdAt,value
2024-03-27T00:00:05.741Z,70.19
2024-03-27T00:00:56.511Z,70.29
2024-03-27T00:01:47.290Z,70.19
2024-03-27T00:02:38.002Z,70.19
2024-03-27T00:03:28.692Z,70.12
2024-03-27T00:04:19.438Z,70.02
2024-03-27T00:05:10.156Z,70.12
2024-03-27T00:06:00.923Z,70.12
2024-03-27T00:06:51.686Z,70.12
2024-03-27T00:07:42.459Z,70.12
2024-03-27T00:08:33.219Z,70.12
2024-03-27T00:09:23.984Z,70.12
2024-03-27T00:10:14.773Z,70.12
2024-03-27T00:11:05.530Z,70.12
2024-03-27T00:11:56.250Z,70.12
2024-03-27T00:12:47.015Z,70.02
2024-03-27T00:13:37.781Z,70.02
2024-03-27T00:14:28.574Z,70.02
2024-03-27T00:15:19.342Z,69.92
2024-03-27T00:16:10.123Z,69.92
2024-03-27T00:17:00.898Z,69.92
2024-03-27T00:17:51.677Z,70.02
2024-03-27T00:18:42.427Z,70.02
2024-03-27T00:19:33.199Z,70.02
2024-03-27T00:20:23.982Z,70.02
2024-03-27T00:21:14.741Z,70.12
2024-03-27T00:22:05.533Z,70.02
2024-03-27T00:22:56.274Z,70.02
2024-03-27T00:23:47.053Z,69.92
2024-03-27T00:24:37.840Z,69.92
2024-03-27T00:25:28.632Z,69.81
2024-03-27T00:26:19.384Z,69.92
2024-03-27T00:27:10.166Z,69.92
2024-03-27T00:28:00.960Z,69.92
2024-03-27T00:28:51.707Z,69.92
2024-03-27T00:29:42.482Z,69.92
2024-03-27T00:30:33.245Z,69.92
2024-03-27T00:31:24.340Z,69.92
2024-03-27T00:32:15.634Z,69.92
2024-03-27T00:33:06.931Z,69.92
2024-03-27T00:33:58.070Z,69.92
2024-03-27T00:34:49.126Z,69.92
2024-03-27T00:35:40.363Z,70.02
2024-03-27T00:36:31.541Z,70.12
2024-03-27T00:37:22.599Z,70.12
2024-03-27T00:38:13.832Z,70.22
2024-03-27T00:39:05.130Z,70.22
2024-03-27T00:39:56.238Z,70.22
2024-03-27T00:40:47.454Z,70.22
2024-03-27T00:41:38.676Z,70.12
2024-03-27T00:42:29.467Z,70.22
2024-03-27T00:43:20.500Z,70.22
2024-03-27T00:44:11.446Z,70.22
2024-03-27T00:45:02.401Z,70.22
2024-03-27T00:45:53.230Z,70.36
2024-03-27T00:46:44.407Z,70.36
2024-03-27T00:47:35.324Z,70.46
2024-03-27T00:48:26.379Z,70.36
2024-03-27T00:49:17.396Z,70.36
2024-03-27T00:50:08.460Z,70.36
2024-03-27T00:50:59.484Z,70.36
2024-03-27T00:51:50.414Z,70.36
2024-03-27T00:52:41.490Z,70.36
2024-03-27T00:53:32.508Z,70.36
2024-03-27T00:54:23.526Z,70.36
2024-03-27T00:55:14.231Z,70.46
2024-03-27T00:56:05.008Z,70.46
2024-03-27T00:56:55.840Z,70.46
2024-03-27T00:57:46.998Z,70.56
2024-03-27T00:58:39.000Z,70.56
2024-03-27T00:59:29.076Z,70.67
2024-03-27T01:00:19.820Z,70.56
2024-03-27T01:01:11.096Z,70.56
2024-03-27T01:02:02.256Z,70.56
2024-03-27T01:02:53.028Z,70.67
2024-03-27T01:03:43.782Z,70.67
2024-03-27T01:04:34.566Z,70.67
2024-03-27T01:05:25.343Z,70.67
2024-03-27T01:06:16.119Z,70.77
2024-03-27T01:07:06.903Z,70.77
2024-03-27T01:07:57.652Z,70.87
2024-03-27T01:08:48.352Z,70.87
2024-03-27T01:09:39.083Z,70.87
2024-03-27T01:10:29.820Z,70.77
2024-03-27T01:11:20.531Z,70.67
2024-03-27T01:12:11.235Z,70.67
2024-03-27T01:13:01.894Z,70.67
2024-03-27T01:13:52.554Z,70.67
2024-03-27T01:14:43.277Z,70.67
2024-03-27T01:15:34.041Z,70.77
2024-03-27T01:16:24.709Z,70.77
2024-03-27T01:17:15.418Z,70.87
2024-03-27T01:18:06.180Z,70.87
2024-03-27T01:18:56.895Z,70.87
2024-03-27T01:19:47.612Z,70.87
2024-03-27T01:20:38.395Z,70.77
2024-03-27T01:21:29.169Z,70.87
2024-03-27T01:22:19.932Z,70.87
2024-03-27T01:23:10.712Z,70.77
2024-03-27T01:24:01.992Z,70.77
2024-03-27T01:24:52.714Z,70.77
2024-03-27T01:25:43.468Z,70.87
2024-03-27T01:26:34.258Z,70.87
2024-03-27T01:27:24.965Z,70.87
2024-03-27T01:28:15.744Z,70.87
2024-03-27T01:29:06.532Z,70.97
2024-03-27T01:29:57.307Z,70.97
2024-03-27T01:30:48.094Z,71.08
2024-03-27T01:31:38.864Z,70.97
2024-03-27T01:32:30.133Z,70.97
2024-03-27T01:33:20.854Z,71.08
2024-03-27T01:34:11.614Z,70.97
2024-03-27T01:35:02.397Z,70.97
2024-03-27T01:35:53.171Z,70.97
2024-03-27T01:36:43.875Z,71.08
2024-03-27T01:37:34.533Z,70.97
2024-03-27T01:38:25.225Z,70.97
2024-03-27T01:39:15.956Z,70.87
2024-03-27T01:40:06.627Z,70.87
2024-03-27T01:40:57.291Z,70.87
2024-03-27T01:41:47.954Z,70.80
2024-03-27T01:42:38.712Z,70.87
2024-03-27T01:43:29.495Z,70.90
2024-03-27T01:44:20.277Z,71.01
2024-03-27T01:45:11.061Z,71.01
2024-03-27T01:46:01.838Z,71.01
2024-03-27T01:46:52.628Z,71.01
2024-03-27T01:47:43.347Z,71.01
2024-03-27T01:48:34.006Z,71.01
2024-03-27T01:49:24.780Z,71.01
2024-03-27T01:50:15.509Z,71.11
2024-03-27T01:51:06.292Z,71.11
2024-03-27T01:51:57.053Z,71.01
2024-03-27T01:52:47.842Z,71.01
2024-03-27T01:53:38.553Z,71.01
2024-03-27T01:54:29.315Z,71.01
2024-03-27T01:55:20.016Z,71.01
2024-03-27T01:56:10.802Z,71.01
2024-03-27T01:57:01.445Z,71.01
2024-03-27T01:57:52.157Z,71.11
2024-03-27T01:58:42.870Z,71.11
2024-03-27T01:59:33.639Z,71.11
2024-03-27T02:00:24.367Z,71.21
2024-03-27T02:01:15.138Z,71.31
2024-03-27T02:02:05.812Z,71.42
2024-03-27T02:02:57.047Z,71.42
2024-03-27T02:03:47.948Z,71.31
2024-03-27T02:04:39.119Z,71.31
2024-03-27T02:05:30.236Z,71.42
2024-03-27T02:06:20.934Z,71.52
2024-03-27T02:07:11.698Z,71.62
2024-03-27T02:08:02.359Z,71.62
2024-03-27T02:08:53.021Z,71.62
2024-03-27T02:09:44.298Z,71.62
2024-03-27T02:10:35.043Z,71.62
2024-03-27T02:11:25.755Z,71.52
2024-03-27T02:12:17.030Z,71.52
2024-03-27T02:13:07.752Z,71.52
2024-03-27T02:13:58.406Z,71.52
2024-03-27T02:14:49.178Z,71.62
2024-03-27T02:15:39.957Z,71.62
2024-03-27T02:16:30.724Z,71.72
2024-03-27T02:17:21.523Z,71.83
2024-03-27T02:18:12.282Z,71.83
2024-03-27T02:19:03.042Z,71.93
2024-03-27T02:19:53.763Z,71.93
2024-03-27T02:20:44.466Z,72.03
2024-03-27T02:21:35.186Z,72.14
2024-03-27T02:22:25.958Z,72.14
2024-03-27T02:23:16.664Z,72.14
2024-03-27T02:24:07.375Z,72.14
2024-03-27T02:24:58.146Z,72.14
2024-03-27T02:25:48.907Z,72.14
2024-03-27T02:26:39.688Z,72.14
2024-03-27T02:27:30.507Z,72.14
2024-03-27T02:28:21.113Z,72.14
2024-03-27T02:29:11.887Z,72.14
2024-03-27T02:30:02.657Z,72.24
2024-03-27T02:30:53.431Z,72.24
2024-03-27T02:31:44.187Z,72.24
2024-03-27T02:32:34.927Z,72.38
2024-03-27T02:33:25.681Z,72.27
2024-03-27T02:34:16.393Z,72.38
2024-03-27T02:35:07.187Z,72.48
2024-03-27T02:35:57.968Z,72.48
2024-03-27T02:36:48.728Z,72.48
2024-03-27T02:37:39.840Z,72.48
2024-03-27T02:38:31.022Z,72.48
2024-03-27T02:39:22.192Z,72.58
2024-03-27T02:40:12.858Z,72.48
2024-03-27T02:41:03.585Z,72.48
2024-03-27T02:41:54.363Z,72.58
2024-03-27T02:42:45.086Z,72.48
2024-03-27T02:43:35.762Z,72.48
2024-03-27T02:44:26.466Z,72.48
2024-03-27T02:45:17.244Z,72.48
2024-03-27T02:46:08.033Z,72.48
2024-03-27T02:46:58.779Z,72.48
2024-03-27T02:47:49.431Z,72.48
2024-03-27T02:48:40.197Z,72.48
2024-03-27T02:49:30.909Z,72.51
2024-03-27T02:50:22.151Z,72.51
2024-03-27T02:51:12.783Z,72.51
2024-03-27T02:52:03.562Z,72.41
2024-03-27T02:52:54.226Z,72.41
2024-03-27T02:53:44.932Z,72.41
2024-03-27T02:54:35.707Z,72.51
2024-03-27T02:55:26.379Z,72.51
2024-03-27T02:56:17.656Z,72.51
2024-03-27T02:57:08.375Z,72.51
2024-03-27T02:57:59.065Z,72.41
2024-03-27T02:58:49.710Z,72.51
2024-03-27T02:59:40.430Z,72.51
2024-03-27T03:00:31.433Z,72.61
2024-03-27T03:01:22.188Z,72.61
2024-03-27T03:02:12.977Z,72.61
2024-03-27T03:03:03.762Z,72.72
2024-03-27T03:03:54.794Z,72.72
2024-03-27T03:04:45.595Z,72.72
2024-03-27T03:05:36.377Z,72.82
2024-03-27T03:06:27.165Z,72.72
2024-03-27T03:07:17.934Z,72.72
2024-03-27T03:08:08.740Z,72.72
2024-03-27T03:08:59.536Z,72.72
2024-03-27T03:09:50.341Z,72.72
2024-03-27T03:10:41.116Z,72.82
2024-03-27T03:11:31.895Z,72.82
2024-03-27T03:12:22.671Z,72.82
2024-03-27T03:13:13.455Z,72.82
2024-03-27T03:14:04.239Z,72.92
2024-03-27T03:14:55.025Z,73.02
2024-03-27T03:15:45.832Z,73.02
2024-03-27T03:16:36.604Z,73.02
2024-03-27T03:17:27.411Z,72.92
2024-03-27T03:18:18.202Z,73.06
2024-03-27T03:19:08.980Z,73.16
2024-03-27T03:19:59.768Z,73.06
2024-03-27T03:20:50.554Z,73.16
2024-03-27T03:21:41.338Z,73.16
2024-03-27T03:22:32.127Z,73.16
2024-03-27T03:23:22.986Z,73.16
2024-03-27T03:24:13.715Z,73.27
2024-03-27T03:25:04.500Z,73.27
2024-03-27T03:25:55.289Z,73.36
2024-03-27T03:26:46.084Z,73.36
2024-03-27T03:27:36.891Z,73.36
2024-03-27T03:28:27.691Z,73.36
2024-03-27T03:29:18.453Z,73.27
2024-03-27T03:30:09.256Z,73.27
2024-03-27T03:31:00.037Z,73.16
2024-03-27T03:31:50.892Z,73.16
2024-03-27T03:32:41.618Z,73.16
2024-03-27T03:33:32.424Z,73.16
2024-03-27T03:34:23.207Z,73.06
2024-03-27T03:35:14.002Z,73.06
2024-03-27T03:36:04.800Z,73.06
2024-03-27T03:36:55.589Z,73.06
2024-03-27T03:37:47.083Z,73.16
2024-03-27T03:38:37.228Z,73.16
2024-03-27T03:39:28.065Z,73.16
2024-03-27T03:40:18.812Z,73.16
2024-03-27T03:41:09.601Z,73.16
2024-03-27T03:42:00.388Z,73.16
2024-03-27T03:42:51.183Z,73.16
2024-03-27T03:43:41.979Z,73.16
2024-03-27T03:44:32.770Z,73.16
2024-03-27T03:45:23.555Z,73.16
2024-03-27T03:46:14.457Z,73.27
2024-03-27T03:47:05.193Z,73.27
2024-03-27T03:47:55.990Z,73.36
2024-03-27T03:48:46.790Z,73.36
2024-03-27T03:49:37.599Z,73.36
2024-03-27T03:50:28.378Z,73.47
2024-03-27T03:51:19.177Z,73.47
2024-03-27T03:52:09.952Z,73.47
2024-03-27T03:53:00.751Z,73.47
2024-03-27T03:53:51.544Z,73.47
2024-03-27T03:54:42.332Z,73.47
2024-03-27T03:55:33.119Z,73.47
2024-03-27T03:56:23.933Z,73.47
2024-03-27T03:57:14.720Z,73.36
2024-03-27T03:58:05.500Z,73.40
2024-03-27T03:58:56.305Z,73.50
2024-03-27T03:59:47.083Z,73.50
2024-03-27T04:00:37.910Z,73.50
2024-03-27T04:01:28.677Z,73.50
2024-03-27T04:02:19.458Z,73.50
2024-03-27T04:03:10.245Z,73.50
2024-03-27T04:04:01.096Z,73.61
2024-03-27T04:04:51.851Z,73.61
2024-03-27T04:05:42.647Z,73.61
2024-03-27T04:06:33.459Z,73.61
2024-03-27T04:07:24.230Z,73.71
2024-03-27T04:08:15.017Z,73.81
2024-03-27T04:09:05.806Z,73.81
2024-03-27T04:09:56.998Z,73.81
2024-03-27T04:10:48.072Z,73.81
2024-03-27T04:11:38.965Z,73.81
2024-03-27T04:12:30.002Z,73.81
2024-03-27T04:13:21.223Z,73.81
2024-03-27T04:14:12.421Z,73.81
2024-03-27T04:15:03.591Z,73.71
2024-03-27T04:15:54.738Z,73.71
2024-03-27T04:16:46.011Z,73.81
2024-03-27T04:17:37.309Z,73.71
2024-03-27T04:18:28.087Z,73.81
2024-03-27T04:19:18.849Z,73.81
2024-03-27T04:20:11.575Z,73.81
2024-03-27T04:21:00.471Z,73.91
2024-03-27T04:21:51.216Z,73.91
2024-03-27T04:22:41.980Z,73.91
2024-03-27T04:23:32.748Z,73.91
2024-03-27T04:24:23.517Z,73.91
2024-03-27T04:25:14.301Z,73.91
2024-03-27T04:26:06.687Z,73.91
2024-03-27T04:26:55.830Z,73.91
2024-03-27T04:27:47.536Z,73.91
2024-03-27T04:28:37.619Z,74.02
2024-03-27T04:29:28.414Z,74.02
2024-03-27T04:30:19.180Z,74.02
2024-03-27T04:31:09.959Z,74.02
2024-03-27T04:32:00.778Z,74.02
2024-03-27T04:32:51.554Z,74.02
2024-03-27T04:33:42.308Z,74.12
2024-03-27T04:34:33.427Z,74.12
2024-03-27T04:35:24.284Z,74.22
2024-03-27T04:36:15.154Z,74.26
2024-03-27T04:37:06.027Z,74.26
2024-03-27T04:37:56.899Z,74.26
2024-03-27T04:38:47.767Z,74.36
2024-03-27T04:39:39.018Z,74.36
2024-03-27T04:40:29.829Z,74.36
2024-03-27T04:41:20.632Z,74.36
2024-03-27T04:42:11.233Z,74.46
2024-03-27T04:43:02.167Z,74.46
2024-03-27T04:43:52.959Z,74.46
2024-03-27T04:44:43.854Z,74.46
2024-03-27T04:45:34.799Z,74.46
2024-03-27T04:46:25.382Z,74.57
2024-03-27T04:47:16.254Z,74.57
2024-03-27T04:48:07.455Z,74.57
2024-03-27T04:48:58.046Z,74.57
2024-03-27T04:49:48.934Z,74.57
2024-03-27T04:50:39.859Z,74.57
2024-03-27T04:51:30.695Z,74.57
2024-03-27T04:52:21.586Z,74.57
2024-03-27T04:53:12.445Z,74.67
2024-03-27T04:54:03.323Z,74.67
2024-03-27T04:54:54.202Z,74.57
2024-03-27T04:55:45.076Z,74.57
2024-03-27T04:56:35.947Z,74.57
2024-03-27T04:57:26.823Z,74.57
2024-03-27T04:58:17.691Z,74.57
2024-03-27T04:59:08.559Z,74.67
2024-03-27T04:59:59.459Z,74.63
2024-03-27T05:00:50.335Z,74.57
2024-03-27T05:01:41.235Z,74.57
2024-03-27T05:02:32.116Z,74.46
2024-03-27T05:03:23.003Z,74.46
2024-03-27T05:04:13.889Z,74.46
2024-03-27T05:05:04.779Z,74.46
2024-03-27T05:05:55.662Z,74.36
2024-03-27T05:06:46.570Z,74.36
2024-03-27T05:07:37.447Z,74.26
2024-03-27T05:08:28.346Z,74.22
2024-03-27T05:09:19.246Z,74.22
2024-03-27T05:10:10.146Z,74.22
2024-03-27T05:11:01.033Z,74.12
2024-03-27T05:11:52.020Z,74.22
2024-03-27T05:12:42.848Z,74.12
2024-03-27T05:13:33.739Z,74.12
2024-03-27T05:14:24.631Z,74.12
2024-03-27T05:15:15.545Z,74.12
2024-03-27T05:16:06.411Z,74.12
2024-03-27T05:16:57.294Z,74.12
2024-03-27T05:17:48.193Z,74.12
2024-03-27T05:18:39.113Z,74.22
2024-03-27T05:19:29.976Z,74.22
2024-03-27T05:20:20.860Z,74.33
2024-03-27T05:21:11.747Z,74.33
2024-03-27T05:22:02.638Z,74.33
2024-03-27T05:22:53.530Z,74.22
2024-03-27T05:23:44.414Z,74.22
2024-03-27T05:24:35.323Z,74.22
2024-03-27T05:25:26.211Z,74.22
2024-03-27T05:26:17.101Z,74.22
2024-03-27T05:27:07.999Z,74.12
2024-03-27T05:27:58.892Z,74.22
2024-03-27T05:28:49.788Z,74.22
2024-03-27T05:29:40.678Z,74.22
2024-03-27T05:30:31.583Z,74.22
2024-03-27T05:31:22.471Z,74.22
2024-03-27T05:32:13.364Z,74.22
2024-03-27T05:33:04.244Z,74.22
2024-03-27T05:33:55.136Z,74.43
2024-03-27T05:34:46.028Z,74.43
2024-03-27T05:35:36.912Z,74.33
2024-03-27T05:36:27.798Z,74.43
2024-03-27T05:37:18.683Z,74.43
2024-03-27T05:38:09.571Z,74.53
2024-03-27T05:39:00.527Z,74.63
2024-03-27T05:39:51.451Z,74.53
2024-03-27T05:40:42.354Z,74.53
2024-03-27T05:41:33.262Z,74.63
2024-03-27T05:42:24.171Z,74.63
2024-03-27T05:43:15.087Z,74.74
2024-03-27T05:44:06.026Z,74.74
2024-03-27T05:44:56.915Z,74.63
2024-03-27T05:45:47.839Z,74.63
2024-03-27T05:46:38.728Z,74.74
2024-03-27T05:47:29.658Z,74.74
2024-03-27T05:48:20.538Z,74.74
2024-03-27T05:49:11.467Z,74.74
2024-03-27T05:50:02.354Z,74.74
2024-03-27T05:50:53.254Z,74.63
2024-03-27T05:51:44.151Z,74.74
2024-03-27T05:52:35.066Z,74.74
2024-03-27T05:53:25.959Z,74.74
2024-03-27T05:54:16.872Z,74.74
2024-03-27T05:55:07.774Z,74.70
2024-03-27T05:55:58.686Z,74.50
2024-03-27T05:56:49.585Z,74.40
2024-03-27T05:57:40.500Z,74.40
2024-03-27T05:58:31.393Z,74.40
2024-03-27T05:59:22.297Z,74.50
2024-03-27T06:00:13.207Z,74.50
2024-03-27T06:01:04.103Z,74.50
2024-03-27T06:01:55.003Z,74.50
2024-03-27T06:02:45.942Z,74.50
2024-03-27T06:03:36.917Z,74.50
2024-03-27T06:04:27.776Z,74.60
2024-03-27T06:05:18.708Z,74.60
2024-03-27T06:06:09.639Z,74.60
2024-03-27T06:07:00.596Z,74.50
2024-03-27T06:07:51.496Z,74.50
2024-03-27T06:08:42.398Z,74.40
2024-03-27T06:09:33.316Z,74.40
2024-03-27T06:10:24.233Z,74.40
2024-03-27T06:11:15.173Z,74.50
2024-03-27T06:12:06.094Z,74.60
2024-03-27T06:12:57.017Z,74.70
2024-03-27T06:13:47.916Z,74.80
2024-03-27T06:14:38.847Z,74.91
2024-03-27T06:15:29.755Z,75.01
2024-03-27T06:16:20.695Z,75.01
2024-03-27T06:17:11.581Z,75.12
2024-03-27T06:18:02.493Z,75.21
2024-03-27T06:18:53.408Z,75.32
2024-03-27T06:19:44.331Z,75.42
2024-03-27T06:20:35.260Z,75.42
2024-03-27T06:21:26.209Z,75.52
2024-03-27T06:22:17.113Z,75.63
2024-03-27T06:23:08.035Z,75.63
2024-03-27T06:23:58.953Z,75.63
2024-03-27T06:24:49.868Z,75.52
2024-03-27T06:25:40.774Z,75.52
2024-03-27T06:26:31.695Z,75.52
2024-03-27T06:27:22.603Z,75.52
2024-03-27T06:28:13.523Z,75.52
2024-03-27T06:29:04.447Z,75.52
2024-03-27T06:29:55.369Z,75.52
2024-03-27T06:30:46.284Z,75.52
2024-03-27T06:31:37.194Z,75.52
2024-03-27T06:32:28.108Z,75.52
2024-03-27T06:33:19.026Z,75.63
2024-03-27T06:34:09.926Z,75.63
2024-03-27T06:35:00.839Z,75.63
2024-03-27T06:35:51.753Z,75.63
2024-03-27T06:36:42.700Z,75.73
2024-03-27T06:37:33.642Z,75.73
2024-03-27T06:38:24.561Z,75.73
2024-03-27T06:39:15.471Z,75.73
2024-03-27T06:40:06.412Z,75.73
2024-03-27T06:40:57.319Z,75.73
2024-03-27T06:41:48.242Z,75.83
2024-03-27T06:42:39.160Z,75.63
2024-03-27T06:43:30.083Z,75.52
2024-03-27T06:44:20.987Z,75.49
2024-03-27T06:45:17.224Z,75.49
2024-03-27T06:46:03.815Z,75.49
2024-03-27T06:46:53.660Z,75.49
2024-03-27T06:47:44.523Z,75.59
2024-03-27T06:48:35.465Z,75.49
2024-03-27T06:49:26.331Z,75.59
2024-03-27T06:50:17.254Z,75.59
2024-03-27T06:51:08.174Z,75.38
2024-03-27T06:51:59.084Z,75.29
2024-03-27T06:52:50.003Z,75.29
2024-03-27T06:53:40.919Z,75.18
2024-03-27T06:54:31.864Z,75.08
2024-03-27T06:55:22.787Z,74.87
2024-03-27T06:56:13.682Z,74.67
2024-03-27T06:57:04.608Z,74.63
2024-03-27T06:57:55.544Z,74.74
2024-03-27T06:58:46.454Z,74.84
2024-03-27T06:59:37.374Z,74.74
2024-03-27T07:00:28.302Z,74.74
2024-03-27T07:01:24.405Z,74.63
2024-03-27T07:02:11.161Z,74.63
2024-03-27T07:03:00.832Z,74.74
2024-03-27T07:03:51.742Z,74.53
2024-03-27T07:04:42.670Z,74.43
2024-03-27T07:05:33.579Z,74.22
2024-03-27T07:06:24.494Z,74.08
2024-03-27T07:07:15.395Z,73.88
2024-03-27T07:08:06.309Z,73.57
2024-03-27T07:08:57.228Z,73.47
2024-03-27T07:09:48.139Z,73.16
2024-03-27T07:10:39.076Z,72.96
2024-03-27T07:11:29.992Z,72.85
2024-03-27T07:12:20.924Z,72.65
2024-03-27T07:13:11.838Z,72.51
2024-03-27T07:14:02.761Z,72.41
2024-03-27T07:14:53.763Z,72.41
2024-03-27T07:15:44.608Z,72.31
2024-03-27T07:16:35.548Z,72.10
2024-03-27T07:17:26.448Z,71.90
2024-03-27T07:18:17.363Z,71.80
2024-03-27T07:19:08.281Z,71.48
2024-03-27T07:19:59.194Z,71.28
2024-03-27T07:20:50.110Z,71.15
2024-03-27T07:21:41.030Z,71.04
2024-03-27T07:22:32.019Z,71.04
2024-03-27T07:23:22.921Z,70.94
2024-03-27T07:24:13.838Z,70.73
2024-03-27T07:25:04.758Z,70.53
2024-03-27T07:25:55.671Z,70.43
2024-03-27T07:26:46.585Z,70.19
2024-03-27T07:27:37.547Z,70.09
2024-03-27T07:28:28.448Z,69.89
2024-03-27T07:29:19.370Z,69.78
2024-03-27T07:30:12.669Z,69.57
2024-03-27T07:31:52.107Z,69.37
2024-03-27T07:32:43.050Z,69.24
2024-03-27T07:33:33.997Z,69.13
2024-03-27T07:34:24.926Z,68.83
2024-03-27T07:35:15.802Z,68.62
2024-03-27T07:36:06.775Z,68.52
2024-03-27T07:36:57.693Z,68.41
2024-03-27T07:37:48.617Z,68.32
2024-03-27T07:38:39.548Z,68.21
2024-03-27T07:39:33.291Z,68.08
2024-03-27T07:40:21.204Z,68.08
2024-03-27T07:41:12.124Z,67.97
2024-03-27T07:42:03.051Z,67.87
2024-03-27T07:42:53.988Z,67.87
2024-03-27T07:43:44.939Z,67.74
2024-03-27T07:44:35.843Z,67.64
2024-03-27T07:45:26.784Z,67.74
2024-03-27T07:46:17.731Z,67.84
2024-03-27T07:47:08.641Z,67.84
2024-03-27T07:47:59.587Z,67.60
2024-03-27T07:48:50.502Z,67.40
2024-03-27T07:49:41.428Z,67.19
2024-03-27T07:50:32.370Z,66.89
2024-03-27T07:51:23.298Z,66.55
2024-03-27T07:52:14.251Z,66.45
2024-03-27T07:53:05.177Z,66.25
2024-03-27T07:53:56.102Z,66.14
2024-03-27T07:54:47.043Z,66.04
2024-03-27T07:55:37.966Z,66.04
2024-03-27T07:56:28.893Z,65.80
2024-03-27T07:57:19.815Z,65.60
2024-03-27T07:58:10.870Z,65.50
2024-03-27T07:59:01.805Z,65.30
2024-03-27T07:59:52.761Z,65.19
2024-03-27T08:00:43.721Z,64.89
2024-03-27T08:01:34.627Z,64.86
2024-03-27T08:02:25.557Z,64.86
2024-03-27T08:03:16.494Z,64.86
2024-03-27T08:04:07.407Z,64.86
2024-03-27T08:04:58.333Z,64.75
2024-03-27T08:05:49.290Z,64.75
2024-03-27T08:06:40.216Z,64.86
2024-03-27T08:07:31.126Z,65.06
2024-03-27T08:08:22.060Z,65.13
2024-03-27T08:09:12.995Z,65.03
2024-03-27T08:10:03.910Z,64.93
2024-03-27T08:10:54.836Z,64.83
2024-03-27T08:11:45.788Z,64.72
2024-03-27T08:12:36.728Z,64.59
2024-03-27T08:13:27.665Z,64.39
2024-03-27T08:14:18.605Z,64.28
2024-03-27T08:15:09.548Z,64.08
2024-03-27T08:16:00.484Z,63.98
2024-03-27T08:16:51.415Z,64.05
2024-03-27T08:17:42.358Z,64.05
2024-03-27T08:18:33.458Z,63.85
2024-03-27T08:19:24.330Z,63.85
2024-03-27T08:20:15.287Z,63.92
2024-03-27T08:21:06.225Z,63.92
2024-03-27T08:21:57.172Z,63.92
2024-03-27T08:22:48.112Z,63.71
2024-03-27T08:23:39.066Z,63.38
2024-03-27T08:24:30.007Z,63.28
2024-03-27T08:25:20.986Z,63.28
2024-03-27T08:26:11.910Z,63.18
2024-03-27T08:27:02.858Z,63.28
2024-03-27T08:27:53.799Z,63.24
2024-03-27T08:28:44.746Z,63.15
2024-03-27T08:29:35.714Z,63.04
2024-03-27T08:30:26.680Z,62.81
2024-03-27T08:31:17.630Z,62.51
2024-03-27T08:32:09.869Z,62.30
2024-03-27T08:32:59.593Z,62.10
2024-03-27T08:33:50.546Z,61.99
2024-03-27T08:34:41.494Z,61.87
2024-03-27T08:35:32.427Z,61.66
2024-03-27T08:36:34.058Z,61.46
2024-03-27T08:37:15.375Z,61.15
2024-03-27T08:38:13.380Z,61.02
2024-03-27T08:38:57.017Z,61.02
2024-03-27T08:39:46.743Z,60.92
2024-03-27T08:40:37.680Z,60.82
2024-03-27T08:41:28.661Z,60.72
2024-03-27T08:42:19.579Z,60.61
2024-03-27T08:43:10.517Z,60.72
2024-03-27T08:44:01.464Z,60.49
2024-03-27T08:44:52.408Z,60.38
2024-03-27T08:45:43.400Z,60.28
2024-03-27T08:46:34.336Z,59.98
2024-03-27T08:47:25.307Z,59.75
2024-03-27T08:48:16.254Z,59.75
2024-03-27T08:49:07.212Z,59.44
2024-03-27T08:49:58.148Z,59.21
2024-03-27T08:50:49.109Z,59.11
2024-03-27T08:51:40.084Z,58.91
2024-03-27T08:52:30.998Z,59.01
2024-03-27T08:53:21.927Z,58.98
2024-03-27T08:54:12.875Z,58.88
2024-03-27T08:55:03.813Z,58.78
2024-03-27T08:55:54.771Z,58.78
2024-03-27T08:56:45.717Z,58.65
2024-03-27T08:57:36.655Z,58.65
2024-03-27T08:58:27.595Z,58.34
2024-03-27T08:59:18.540Z,58.14
2024-03-27T09:00:09.490Z,57.91
2024-03-27T09:01:00.487Z,57.60
2024-03-27T09:01:51.372Z,57.50
2024-03-27T09:02:42.310Z,57.07
2024-03-27T09:03:33.250Z,56.87
2024-03-27T09:04:24.208Z,56.67
2024-03-27T09:05:15.138Z,56.57
2024-03-27T09:06:06.090Z,56.23
2024-03-27T09:06:57.033Z,56.03
2024-03-27T09:07:47.997Z,56.34
2024-03-27T09:08:38.955Z,56.64
2024-03-27T09:09:29.880Z,56.61
2024-03-27T09:10:20.842Z,56.21
2024-03-27T09:11:11.774Z,56.21
2024-03-27T09:12:02.731Z,55.88
2024-03-27T09:12:53.659Z,55.47
2024-03-27T09:13:44.599Z,55.17
2024-03-27T09:14:35.550Z,55.04
2024-03-27T09:15:26.482Z,55.15
2024-03-27T09:16:17.487Z,55.35
2024-03-27T09:17:08.375Z,55.24
2024-03-27T09:17:59.322Z,54.71
2024-03-27T09:18:50.260Z,54.31
2024-03-27T09:19:41.205Z,54.21
2024-03-27T09:20:32.146Z,54.00
2024-03-27T09:21:23.104Z,53.90
2024-03-27T09:22:14.074Z,53.80
2024-03-27T09:23:04.975Z,53.88
2024-03-27T09:23:58.980Z,53.67
2024-03-27T09:24:46.932Z,53.67
2024-03-27T09:25:37.855Z,53.88
2024-03-27T09:26:28.802Z,53.78
2024-03-27T09:27:19.752Z,53.58
2024-03-27T09:28:10.699Z,53.25
2024-03-27T09:29:01.653Z,53.14
2024-03-27T09:29:53.320Z,53.34
2024-03-27T09:30:43.245Z,53.34
2024-03-27T09:31:34.166Z,53.12
2024-03-27T09:32:25.116Z,52.61
2024-03-27T09:33:16.049Z,52.51
2024-03-27T09:34:06.999Z,52.61
2024-03-27T09:34:57.944Z,52.49
2024-03-27T09:35:48.883Z,52.49
2024-03-27T09:36:39.829Z,52.39
2024-03-27T09:37:30.793Z,52.06
2024-03-27T09:38:21.724Z,51.76
2024-03-27T09:39:12.674Z,51.45
2024-03-27T09:40:03.605Z,51.25
2024-03-27T09:40:54.547Z,51.15
2024-03-27T09:41:45.499Z,51.13
2024-03-27T09:42:36.454Z,51.03
2024-03-27T09:43:27.399Z,51.23
2024-03-27T09:44:18.360Z,50.82
2024-03-27T09:45:09.298Z,50.62
2024-03-27T09:46:00.244Z,50.42
2024-03-27T09:46:51.207Z,50.32
2024-03-27T09:47:42.188Z,50.32
2024-03-27T09:48:33.113Z,50.32
2024-03-27T09:49:24.046Z,50.12
2024-03-27T09:50:15.005Z,50.32
2024-03-27T09:51:05.943Z,50.62
2024-03-27T09:51:59.501Z,50.32
2024-03-27T09:52:47.643Z,50.42
2024-03-27T09:53:38.593Z,50.42
2024-03-27T09:54:29.528Z,50.42
2024-03-27T09:55:20.477Z,50.32
2024-03-27T09:56:11.438Z,50.22
2024-03-27T09:57:02.368Z,50.22
2024-03-27T09:57:53.309Z,50.12
2024-03-27T09:58:44.242Z,49.62
2024-03-27T09:59:35.180Z,49.31
2024-03-27T10:00:26.155Z,49.31
2024-03-27T10:01:17.616Z,49.21
2024-03-27T10:02:07.891Z,49.01
2024-03-27T10:02:58.821Z,48.81
2024-03-27T10:03:49.839Z,48.81
2024-03-27T10:04:40.765Z,48.91
2024-03-27T10:05:31.699Z,48.91
2024-03-27T10:06:22.623Z,48.91
2024-03-27T10:07:13.572Z,49.21
2024-03-27T10:08:04.528Z,49.41
2024-03-27T10:08:55.469Z,49.82
2024-03-27T10:09:46.443Z,49.92
2024-03-27T10:10:37.396Z,49.82
2024-03-27T10:11:28.303Z,49.72
2024-03-27T10:12:19.247Z,49.41
2024-03-27T10:13:10.195Z,49.52
2024-03-27T10:14:01.227Z,49.41
2024-03-27T10:14:52.107Z,49.31
2024-03-27T10:15:43.091Z,49.31
2024-03-27T10:16:33.994Z,49.21
2024-03-27T10:17:24.957Z,49.01
2024-03-27T10:18:15.877Z,48.91
2024-03-27T10:19:06.811Z,48.91
2024-03-27T10:19:57.759Z,48.81
2024-03-27T10:20:50.163Z,48.81
2024-03-27T10:21:39.855Z,48.81
2024-03-27T10:22:30.803Z,48.81
2024-03-27T10:23:21.744Z,48.91
2024-03-27T10:24:12.702Z,48.91
2024-03-27T10:25:03.656Z,48.91
2024-03-27T10:25:54.596Z,49.11
2024-03-27T10:26:45.552Z,48.89
2024-03-27T10:27:36.470Z,48.58
2024-03-27T10:28:27.407Z,48.49
2024-03-27T10:29:18.347Z,48.38
2024-03-27T10:30:09.285Z,48.28
2024-03-27T10:31:00.225Z,48.26
2024-03-27T10:31:51.169Z,48.36
2024-03-27T10:32:42.129Z,48.26
2024-03-27T10:33:33.070Z,48.34
2024-03-27T10:34:24.012Z,48.54
2024-03-27T10:35:14.956Z,48.44
2024-03-27T10:36:05.908Z,48.03
2024-03-27T10:36:56.866Z,47.91
2024-03-27T10:37:47.816Z,48.01
2024-03-27T10:38:38.789Z,47.99
2024-03-27T10:39:29.738Z,47.79
2024-03-27T10:40:20.671Z,47.69
2024-03-27T10:41:11.625Z,47.36
2024-03-27T10:42:02.573Z,47.06
2024-03-27T10:42:53.507Z,46.84
2024-03-27T10:43:44.457Z,46.64
2024-03-27T10:44:35.390Z,46.54
2024-03-27T10:45:26.343Z,46.92
2024-03-27T10:46:17.288Z,46.72
2024-03-27T10:47:08.230Z,46.54
2024-03-27T10:47:59.172Z,46.23
2024-03-27T10:48:50.128Z,45.94
2024-03-27T10:49:41.067Z,45.73
2024-03-27T10:50:32.009Z,45.53
2024-03-27T10:51:22.966Z,45.65
2024-03-27T10:52:13.906Z,45.65
2024-03-27T10:53:04.841Z,45.67
2024-03-27T10:53:55.808Z,45.57
2024-03-27T10:54:46.774Z,45.67
2024-03-27T10:55:37.680Z,46.18